Time;durP1;ratioP1;P1;durP2;ratioP2;P2;SDS_P1;SDS_P2;PMS_P1;PMS_P2;Temp;Humidity;BMP_temperature;BMP_pressure;BME280_temperature;BME280_humidity;BME280_pressure;Samples;Min_cycle;Max_cycle;Signal;HPM_P1;HPM_P2
2022/04/26 03:38:09;;;;;;;6.22;4.68;;;;;;;-148.33;100.00;56587.81;5050671;28;20032;-60
2022/04/26 03:40:34;;;;;;;6.63;4.75;;;;;;;-148.33;100.00;56587.81;5050601;28;20029;-60
2022/04/26 03:42:59;;;;;;;8.38;5.15;;;;;;;-148.33;100.00;56587.81;5050136;28;20397;-58
2022/04/26 03:45:25;;;;;;;6.15;4.85;;;;;;;-148.33;100.00;56587.81;5051394;28;20795;-61
2022/04/26 03:47:50;;;;;;;5.82;4.85;;;;;;;-148.33;100.00;56587.81;5050750;28;20170;-57
2022/04/26 03:50:15;;;;;;;6.72;5.70;;;;;;;-148.33;100.00;56587.81;5051260;28;20384;-58
2022/04/26 03:52:40;;;;;;;7.90;5.72;;;;;;;-148.33;100.00;56587.81;5050479;28;20028;-58
2022/04/26 03:55:07;;;;;;;7.32;5.45;;;;;;;-148.33;100.00;56587.81;5050540;28;20033;-58
2022/04/26 03:57:32;;;;;;;5.47;4.93;;;;;;;-148.33;100.00;56587.81;5050592;28;20025;-56
2022/04/26 03:59:57;;;;;;;8.85;5.82;;;;;;;-148.33;100.00;56587.81;5049358;28;20472;-58
2022/04/26 04:02:23;;;;;;;8.07;5.43;;;;;;;-148.33;100.00;56587.81;5051069;28;20519;-57
2022/04/26 04:04:49;;;;;;;6.88;5.22;;;;;;;-148.33;100.00;56587.81;5050308;28;20028;-59
2022/04/26 04:07:14;;;;;;;7.15;5.28;;;;;;;-148.33;100.00;56587.81;5050679;28;20425;-58
2022/04/26 04:09:40;;;;;;;6.63;5.50;;;;;;;-148.33;100.00;56587.81;5050644;28;20059;-59
2022/04/26 04:12:05;;;;;;;6.68;5.75;;;;;;;-148.33;100.00;56587.81;5050855;28;20052;-58
2022/04/26 04:14:31;;;;;;;7.35;5.60;;;;;;;-148.33;100.00;56587.81;5050408;28;20028;-59
2022/04/26 04:16:57;;;;;;;5.55;4.93;;;;;;;-148.33;100.00;56587.81;5048547;28;20304;-58
2022/04/26 04:19:24;;;;;;;6.20;5.60;;;;;;;-148.33;100.00;56587.81;5048663;28;20035;-58
2022/04/26 04:21:51;;;;;;;7.15;6.38;;;;;;;-148.33;100.00;56587.81;5048858;28;20491;-58
2022/04/26 04:24:17;;;;;;;8.02;5.63;;;;;;;-148.33;100.00;56587.81;5048791;28;20086;-57
2022/04/26 04:26:46;;;;;;;8.27;5.90;;;;;;;-148.33;100.00;56587.81;5047891;28;20033;-56
2022/04/26 04:29:12;;;;;;;9.93;6.22;;;;;;;-148.33;100.00;56587.81;5047630;28;20055;-59
2022/04/26 04:31:38;;;;;;;8.10;6.60;;;;;;;-148.33;100.00;56587.81;5047278;28;20025;-58
2022/04/26 04:34:03;;;;;;;11.13;5.97;;;;;;;-148.33;100.00;56587.81;5047075;28;20556;-59
2022/04/26 04:36:29;;;;;;;8.50;6.43;;;;;;;-148.33;100.00;56587.81;5046349;28;20047;-58
2022/04/26 04:38:58;;;;;;;8.43;6.20;;;;;;;-148.33;100.00;56587.81;5046221;28;20025;-59
2022/04/26 04:41:23;;;;;;;9.50;6.78;;;;;;;-148.33;100.00;56587.81;5047085;28;20028;-58
2022/04/26 04:43:49;;;;;;;8.55;6.20;;;;;;;-148.33;100.00;56587.81;5047015;28;20473;-59
2022/04/26 04:46:14;;;;;;;7.63;6.18;;;;;;;-148.33;100.00;56587.81;5047773;28;20025;-59
2022/04/26 04:48:39;;;;;;;9.18;6.25;;;;;;;-148.33;100.00;56587.81;5049034;28;20029;-59
2022/04/26 04:51:05;;;;;;;8.40;6.55;;;;;;;-148.33;100.00;56587.81;5049183;28;20021;-58
2022/04/26 04:53:30;;;;;;;7.57;6.22;;;;;;;-148.33;100.00;56587.81;5049147;28;20033;-59
2022/04/26 04:55:55;;;;;;;8.07;6.05;;;;;;;-148.33;100.00;56587.81;5048664;28;20027;-59
2022/04/26 04:58:21;;;;;;;9.52;6.50;;;;;;;-148.33;100.00;56587.81;5049039;28;20021;-59
2022/04/26 05:00:46;;;;;;;10.30;6.30;;;;;;;-148.33;100.00;56587.81;5048488;28;20405;-57
2022/04/26 05:03:11;;;;;;;7.78;6.65;;;;;;;-148.33;100.00;56587.81;5049582;28;20472;-59
2022/04/26 05:05:36;;;;;;;8.05;6.28;;;;;;;-148.33;100.00;56587.81;5048253;28;20027;-57
2022/04/26 05:08:02;;;;;;;7.10;6.40;;;;;;;-148.33;100.00;56587.81;5048709;28;20362;-57
2022/04/26 05:10:30;;;;;;;8.27;6.47;;;;;;;-148.33;100.00;56587.81;5049106;28;20029;-60
2022/04/26 05:12:55;;;;;;;9.50;6.20;;;;;;;-148.33;100.00;56587.81;5048578;28;20070;-58
2022/04/26 05:15:20;;;;;;;9.52;6.45;;;;;;;-148.33;100.00;56587.81;5048121;28;20033;-58
2022/04/26 05:17:46;;;;;;;8.80;6.88;;;;;;;-148.33;100.00;56587.81;5047583;28;20113;-59
2022/04/26 05:20:12;;;;;;;8.80;6.38;;;;;;;-148.33;100.00;56587.81;5048653;28;20032;-58
2022/04/26 05:25:22;;;;;;;8.00;5.95;;;;;;;-148.33;100.00;56587.81;5048185;28;20139;-59
2022/04/26 05:27:47;;;;;;;9.98;6.68;;;;;;;-148.33;100.00;56587.81;5048456;28;20108;-58
2022/04/26 05:30:12;;;;;;;7.25;6.22;;;;;;;-148.33;100.00;56587.81;5047975;28;20086;-60
2022/04/26 05:32:38;;;;;;;8.85;6.35;;;;;;;-148.33;100.00;56587.81;5048094;28;20083;-57
2022/04/26 05:35:05;;;;;;;10.27;6.35;;;;;;;-148.33;100.00;56587.81;5048034;28;20033;-60
2022/04/26 05:37:31;;;;;;;8.38;6.63;;;;;;;-148.33;100.00;56587.81;5047248;28;20470;-59
2022/04/26 05:39:57;;;;;;;9.52;6.80;;;;;;;-148.33;100.00;56587.81;5048327;28;20401;-59
2022/04/26 05:42:23;;;;;;;8.45;6.60;;;;;;;-148.33;100.00;56587.81;5047626;28;20040;-59
2022/04/26 05:44:48;;;;;;;7.25;6.53;;;;;;;-148.33;100.00;56587.81;5048304;28;20033;-59
2022/04/26 05:47:13;;;;;;;7.05;6.20;;;;;;;-148.33;100.00;56587.81;5048055;28;20458;-58
2022/04/26 05:49:39;;;;;;;10.30;6.78;;;;;;;-148.33;100.00;56587.81;5048262;28;20041;-58
2022/04/26 05:52:05;;;;;;;7.20;6.35;;;;;;;-148.33;100.00;56587.81;5047532;28;20053;-59
2022/04/26 05:54:31;;;;;;;8.20;6.63;;;;;;;-148.33;100.00;56587.81;5047204;28;20104;-57
2022/04/26 05:56:56;;;;;;;10.07;6.90;;;;;;;-148.33;100.00;56587.81;5048367;28;20086;-59
2022/04/26 05:59:22;;;;;;;9.45;6.82;;;;;;;-148.33;100.00;56587.81;5047607;28;20436;-58
2022/04/26 06:01:49;;;;;;;7.25;6.55;;;;;;;-148.33;100.00;56587.81;5047536;28;20611;-58
2022/04/26 06:04:14;;;;;;;9.45;6.82;;;;;;;-148.33;100.00;56587.81;5047585;28;20025;-59
2022/04/26 06:06:40;;;;;;;8.73;7.10;;;;;;;-148.33;100.00;56587.81;5047687;28;20444;-57
2022/04/26 06:09:05;;;;;;;7.63;6.30;;;;;;;-148.33;100.00;56587.81;5048366;28;20060;-59
2022/04/26 06:11:31;;;;;;;10.35;6.53;;;;;;;-148.33;100.00;56587.81;5047440;28;20029;-59
2022/04/26 06:13:57;;;;;;;9.38;6.75;;;;;;;-148.33;100.00;56587.81;5046891;28;20066;-59
2022/04/26 06:16:22;;;;;;;9.80;6.47;;;;;;;-148.33;100.00;56587.81;5047192;28;20079;-59
2022/04/26 06:18:48;;;;;;;8.73;7.15;;;;;;;-148.33;100.00;56587.81;5046250;28;20025;-59
2022/04/26 06:21:13;;;;;;;7.57;6.32;;;;;;;-148.33;100.00;56587.81;5046155;28;20067;-59
2022/04/26 06:23:39;;;;;;;8.00;6.45;;;;;;;-148.33;100.00;56587.81;5046604;28;20064;-59
2022/04/26 06:26:04;;;;;;;14.10;7.57;;;;;;;-148.33;100.00;56587.81;5046883;28;20028;-59
2022/04/26 06:28:30;;;;;;;8.32;7.22;;;;;;;-148.33;100.00;56587.81;5046691;28;20762;-59
2022/04/26 06:30:55;;;;;;;8.95;7.53;;;;;;;-148.33;100.00;56587.81;5046356;28;20025;-59
2022/04/26 06:33:21;;;;;;;11.85;7.72;;;;;;;-148.33;100.00;56587.81;5045871;28;20505;-59
2022/04/26 06:35:46;;;;;;;11.00;8.02;;;;;;;-148.33;100.00;56587.81;5045359;28;20083;-59
2022/04/26 06:38:12;;;;;;;8.73;7.82;;;;;;;-148.33;100.00;56587.81;5044195;28;20079;-58
2022/04/26 06:40:38;;;;;;;9.63;8.07;;;;;;;-148.33;100.00;56587.81;5046146;28;20049;-57
2022/04/26 06:43:03;;;;;;;12.35;8.40;;;;;;;-148.33;100.00;56587.81;5045991;28;20067;-59
2022/04/26 06:45:28;;;;;;;8.95;8.02;;;;;;;-148.33;100.00;56587.81;5046431;28;20068;-59
2022/04/26 06:47:54;;;;;;;8.77;7.80;;;;;;;-148.33;100.00;56587.81;5045886;28;20104;-58
2022/04/26 06:50:21;;;;;;;10.00;8.25;;;;;;;-148.33;100.00;56587.81;5047014;28;20027;-57
2022/04/26 06:52:46;;;;;;;10.27;8.80;;;;;;;-148.33;100.00;56587.81;5046773;28;20025;-59
2022/04/26 06:55:11;;;;;;;12.52;9.07;;;;;;;-148.33;100.00;56587.81;5046791;28;20036;-59
2022/04/26 06:57:37;;;;;;;11.55;8.40;;;;;;;-148.33;100.00;56587.81;5047417;28;20375;-57
2022/04/26 07:00:05;;;;;;;10.80;8.70;;;;;;;-148.33;100.00;56587.81;5046902;28;20052;-59
2022/04/26 07:02:30;;;;;;;11.05;8.32;;;;;;;-148.33;100.00;56587.81;5046969;28;20109;-58
2022/04/26 07:04:56;;;;;;;9.75;8.70;;;;;;;-148.33;100.00;56587.81;5047196;28;20112;-57
2022/04/26 07:07:22;;;;;;;9.68;8.27;;;;;;;-148.33;100.00;56587.81;5047534;28;20028;-59
2022/04/26 07:09:47;;;;;;;11.07;8.75;;;;;;;-148.33;100.00;56587.81;5047983;28;20504;-60
2022/04/26 07:12:12;;;;;;;9.45;8.48;;;;;;;-148.33;100.00;56587.81;5051506;28;20450;-59
2022/04/26 07:14:38;;;;;;;11.52;9.52;;;;;;;-148.33;100.00;56587.81;5051070;28;20113;-60
2022/04/26 07:17:03;;;;;;;9.20;8.35;;;;;;;-148.33;100.00;56587.81;5050511;28;20048;-57
2022/04/26 07:19:28;;;;;;;11.00;8.32;;;;;;;-148.33;100.00;56587.81;5051089;28;20122;-59
2022/04/26 07:21:53;;;;;;;11.65;9.23;;;;;;;-148.33;100.00;56587.81;5050686;28;20032;-58
2022/04/26 07:24:19;;;;;;;11.48;8.43;;;;;;;-148.33;100.00;56587.81;5049024;28;20032;-56
2022/04/26 07:26:44;;;;;;;9.43;8.45;;;;;;;-148.33;100.00;56587.81;5050722;28;20052;-58
2022/04/26 07:29:10;;;;;;;9.25;8.35;;;;;;;-148.33;100.00;56587.81;5051086;28;20540;-58
2022/04/26 07:31:36;;;;;;;11.60;8.90;;;;;;;-148.33;100.00;56587.81;5050908;28;20025;-60
2022/04/26 07:36:46;;;;;;;8.82;7.93;;;;;;;-148.33;100.00;56587.81;5050597;28;20093;-58
2022/04/26 07:39:11;;;;;;;11.27;8.48;;;;;;;-148.33;100.00;56587.81;5049984;28;20116;-59
2022/04/26 07:41:37;;;;;;;9.25;8.20;;;;;;;-148.33;100.00;56587.81;5032627;28;20051;-56
2022/04/26 07:44:02;;;;;;;10.27;8.05;;;;;;;-148.33;100.00;56587.81;5050472;28;20389;-58
2022/04/26 07:46:28;;;;;;;8.55;7.05;;;;;;;-148.33;100.00;56587.81;5050349;28;20078;-58
2022/04/26 07:48:55;;;;;;;11.95;7.65;;;;;;;-148.33;100.00;56587.81;5049101;28;20033;-56
2022/04/26 07:51:21;;;;;;;11.35;8.13;;;;;;;-148.33;100.00;56587.81;5050858;28;20472;-56
2022/04/26 07:53:46;;;;;;;9.98;7.88;;;;;;;-148.33;100.00;56587.81;5050376;28;20057;-58
2022/04/26 07:56:11;;;;;;;10.20;7.80;;;;;;;-148.33;100.00;56587.81;5050362;28;20385;-58
2022/04/26 07:58:36;;;;;;;9.50;7.60;;;;;;;-148.33;100.00;56587.81;5050006;28;20036;-57
2022/04/26 08:01:03;;;;;;;8.90;7.75;;;;;;;-148.33;100.00;56587.81;5050094;28;20040;-57
2022/04/26 08:03:31;;;;;;;8.85;7.90;;;;;;;-148.33;100.00;56587.81;5050053;28;20021;-59
2022/04/26 08:05:57;;;;;;;10.82;7.22;;;;;;;-148.33;100.00;56587.81;5048459;28;20363;-57
2022/04/26 08:08:23;;;;;;;10.70;6.95;;;;;;;-148.33;100.00;56587.81;5049725;28;20025;-59
2022/04/26 08:10:49;;;;;;;7.82;6.82;;;;;;;-148.33;100.00;56587.81;5049819;28;20108;-59
2022/04/26 08:13:14;;;;;;;8.68;6.75;;;;;;;-148.33;100.00;56587.81;5050015;28;20091;-59
2022/04/26 08:15:40;;;;;;;10.15;7.55;;;;;;;-148.33;100.00;56587.81;5048274;28;20120;-58
2022/04/26 08:18:06;;;;;;;9.13;6.72;;;;;;;-148.33;100.00;56587.81;5049597;28;20024;-58
2022/04/26 08:20:32;;;;;;;6.65;5.95;;;;;;;-148.33;100.00;56587.81;5049739;28;20410;-58
2022/04/26 08:22:58;;;;;;;7.13;6.30;;;;;;;-148.33;100.00;56587.81;5048762;28;20103;-59
2022/04/26 08:28:07;;;;;;;10.57;7.28;;;;;;;-148.33;100.00;56587.81;5038374;28;20591;-57
2022/04/26 08:30:33;;;;;;;11.68;6.50;;;;;;;-148.33;100.00;56587.81;5030564;28;20037;-59
2022/04/26 08:32:59;;;;;;;12.50;7.25;;;;;;;-148.33;100.00;56587.81;5044140;28;20048;-57
2022/04/26 08:35:27;;;;;;;9.13;7.25;;;;;;;-148.33;100.00;56587.81;5031225;28;20036;-59
2022/04/26 08:37:53;;;;;;;12.13;7.60;;;;;;;-148.33;100.00;56587.81;5030894;28;20101;-59
2022/04/26 08:40:19;;;;;;;9.27;6.93;;;;;;;-148.33;100.00;56587.81;5031489;28;20036;-60
2022/04/26 08:42:46;;;;;;;8.32;7.03;;;;;;;-148.33;100.00;56587.81;5027880;28;20021;-60
2022/04/26 08:45:15;;;;;;;7.95;7.15;;;;;;;-148.33;100.00;56587.81;5038240;28;20116;-59
2022/04/26 08:53:14;;;;;;;10.18;6.88;;;;;;;-148.33;100.00;56587.81;5038341;28;20040;-60
2022/04/26 08:55:44;;;;;;;10.00;6.22;;;;;;;-148.33;100.00;56587.81;5046660;28;20017;-59
2022/04/26 08:58:11;;;;;;;8.60;6.18;;;;;;;-148.33;100.00;56587.81;5041971;28;20013;-59
2022/04/26 09:00:39;;;;;;;9.80;6.32;;;;;;;-148.33;100.00;56587.81;5049543;28;20033;-60
2022/04/26 09:03:07;;;;;;;10.00;5.90;;;;;;;-148.33;100.00;56587.81;5036322;28;20025;-60
2022/04/26 09:05:32;;;;;;;8.23;5.13;;;;;;;-148.33;100.00;56587.81;5041956;28;20025;-59
2022/04/26 09:07:58;;;;;;;8.95;5.88;;;;;;;-148.33;100.00;56587.81;5047373;28;20040;-57
2022/04/26 09:10:25;;;;;;;10.32;5.88;;;;;;;-148.33;100.00;56587.81;5041517;28;20025;-59
2022/04/26 09:13:11;;;;;;;7.53;5.70;;;;;;;-148.33;100.00;56587.81;5031301;28;20032;-59
2022/04/26 09:15:45;;;;;;;6.65;5.45;;;;;;;-148.33;100.00;56587.81;5028135;28;20021;-59
2022/04/26 09:18:30;;;;;;;9.57;5.63;;;;;;;-148.33;100.00;56587.81;5031462;28;20389;-58
2022/04/26 09:21:08;;;;;;;9.13;5.47;;;;;;;-148.33;100.00;56587.81;5030922;28;20021;-57
2022/04/26 09:23:34;;;;;;;12.30;5.95;;;;;;;-148.33;100.00;56587.81;5037732;28;20021;-60
2022/04/26 09:26:15;;;;;;;8.77;5.35;;;;;;;-148.33;100.00;56587.81;5047444;28;20021;-60
2022/04/26 09:28:46;;;;;;;6.60;4.70;;;;;;;-148.33;100.00;56587.81;5042813;28;20096;-58
2022/04/26 09:31:22;;;;;;;7.18;4.47;;;;;;;-148.33;100.00;56587.81;5047260;28;20024;-59
2022/04/26 09:33:51;;;;;;;6.82;4.43;;;;;;;-148.33;100.00;56587.81;5028072;28;20118;-58
2022/04/26 09:36:18;;;;;;;7.68;4.43;;;;;;;-148.33;100.00;56587.81;5046621;28;20033;-58
2022/04/26 09:38:55;;;;;;;7.72;4.50;;;;;;;-148.33;100.00;56587.81;5026087;28;20096;-60
2022/04/26 09:41:21;;;;;;;6.90;4.80;;;;;;;-148.33;100.00;56587.81;5032042;28;20029;-60
2022/04/26 09:44:03;;;;;;;7.32;4.60;;;;;;;-148.33;100.00;56587.81;5037215;28;20085;-61
2022/04/26 09:46:55;;;;;;;7.00;4.68;;;;;;;-148.33;100.00;56587.81;5048028;28;20029;-61
2022/04/26 09:49:22;;;;;;;7.18;4.47;;;;;;;-148.33;100.00;56587.81;5042618;28;20048;-60
2022/04/26 09:51:51;;;;;;;6.95;4.15;;;;;;;-148.33;100.00;56587.81;5039184;28;20053;-60
2022/04/26 09:54:17;;;;;;;7.75;4.10;;;;;;;-148.33;100.00;56587.81;5031788;28;20376;-60
2022/04/26 09:56:45;;;;;;;5.88;3.67;;;;;;;-148.33;100.00;56587.81;5032387;28;20021;-60
2022/04/26 09:59:18;;;;;;;5.43;4.13;;;;;;;-148.33;100.00;56587.81;5029468;28;20474;-60
2022/04/26 10:01:46;;;;;;;4.60;3.97;;;;;;;-148.33;100.00;56587.81;5041655;28;20043;-61
2022/04/26 10:04:23;;;;;;;7.20;4.03;;;;;;;-148.33;100.00;56587.81;5043121;28;20074;-60
2022/04/26 10:07:17;;;;;;;7.22;3.92;;;;;;;-148.33;100.00;56587.81;5033359;28;20044;-60
2022/04/26 10:09:45;;;;;;;7.38;4.20;;;;;;;-148.33;100.00;56587.81;5044872;28;20512;-60
2022/04/26 10:12:11;;;;;;;8.63;4.07;;;;;;;-148.33;100.00;56587.81;5038137;28;20060;-59
2022/04/26 10:14:36;;;;;;;10.68;4.45;;;;;;;-148.33;100.00;56587.81;5046773;28;20234;-60
2022/04/26 10:17:02;;;;;;;20.08;5.50;;;;;;;-148.33;100.00;56587.81;5047445;28;20024;-61
2022/04/26 10:19:42;;;;;;;5.75;3.50;;;;;;;-148.33;100.00;56587.81;5032756;28;20021;-59
2022/04/26 10:22:10;;;;;;;6.07;3.35;;;;;;;-148.33;100.00;56587.81;5027520;28;20520;-58
2022/04/26 10:24:36;;;;;;;6.75;3.60;;;;;;;-148.33;100.00;56587.81;5032340;28;20090;-60
2022/04/26 10:27:28;;;;;;;4.68;3.60;;;;;;;-148.33;100.00;56587.81;5038277;28;20021;-60
2022/04/26 10:29:53;;;;;;;9.77;4.22;;;;;;;-148.33;100.00;56587.81;5033723;28;20123;-60
2022/04/26 10:32:38;;;;;;;7.22;3.85;;;;;;;-148.33;100.00;56587.81;5038002;28;20151;-60
2022/04/26 10:35:25;;;;;;;6.28;4.35;;;;;;;-148.33;100.00;56587.81;5037266;28;20040;-60
2022/04/26 10:38:12;;;;;;;5.43;3.92;;;;;;;-148.33;100.00;56587.81;5034398;28;20075;-59
2022/04/26 10:41:02;;;;;;;4.18;3.75;;;;;;;-148.33;100.00;56587.81;5037876;28;20136;-60
2022/04/26 10:43:27;;;;;;;5.03;4.20;;;;;;;-148.33;100.00;56587.81;5037796;28;20040;-59
2022/04/26 10:46:15;;;;;;;4.43;3.70;;;;;;;-148.33;100.00;56587.81;5038638;28;20115;-61
2022/04/26 10:48:42;;;;;;;4.93;3.92;;;;;;;-148.33;100.00;56587.81;5043787;28;20377;-60
2022/04/26 10:51:33;;;;;;;5.22;3.97;;;;;;;-148.33;100.00;56587.81;5038885;28;20112;-59
2022/04/26 10:53:58;;;;;;;8.68;4.00;;;;;;;-148.33;100.00;56587.81;5041652;28;20424;-59
2022/04/26 10:56:23;;;;;;;4.60;3.30;;;;;;;-148.33;100.00;56587.81;5041080;28;20025;-61
2022/04/26 10:58:52;;;;;;;4.95;3.53;;;;;;;-148.33;100.00;56587.81;5040462;28;20267;-61
2022/04/26 11:01:18;;;;;;;8.38;4.10;;;;;;;-148.33;100.00;56587.81;5040109;28;20118;-60
2022/04/26 11:03:57;;;;;;;5.03;3.75;;;;;;;-148.33;100.00;56587.81;5040960;28;20024;-59
2022/04/26 11:06:32;;;;;;;5.45;3.78;;;;;;;-148.33;100.00;56587.81;5037647;28;20481;-60
2022/04/26 11:09:11;;;;;;;6.60;4.70;;;;;;;-148.33;100.00;56587.81;5039682;28;20033;-59
2022/04/26 11:11:53;;;;;;;5.55;3.72;;;;;;;-148.33;100.00;56587.81;5039675;28;20026;-61
2022/04/26 11:14:20;;;;;;;8.93;4.70;;;;;;;-148.33;100.00;56587.81;5041755;28;20021;-60
2022/04/26 11:17:04;;;;;;;7.40;4.60;;;;;;;-148.33;100.00;56587.81;5041158;28;20029;-60
2022/04/26 11:19:37;;;;;;;7.03;4.00;;;;;;;-148.33;100.00;56587.81;5039668;28;20050;-61
2022/04/26 11:22:08;;;;;;;7.97;4.35;;;;;;;-148.33;100.00;56587.81;5039912;28;20029;-60
2022/04/26 11:30:04;;;;;;;5.47;3.75;;;;;;;-148.33;100.00;56587.81;5036984;28;20418;-62
2022/04/26 11:32:34;;;;;;;6.75;4.20;;;;;;;-148.33;100.00;56587.81;5039506;28;20544;-61
2022/04/26 11:35:01;;;;;;;6.75;4.60;;;;;;;-148.33;100.00;56587.81;5039493;28;20048;-61
2022/04/26 11:37:26;;;;;;;4.85;4.13;;;;;;;-148.33;100.00;56587.81;5039370;28;20029;-59
2022/04/26 11:39:51;;;;;;;7.88;4.82;;;;;;;-148.33;100.00;56587.81;5038015;28;20037;-61
2022/04/26 11:42:17;;;;;;;4.90;4.25;;;;;;;-148.33;100.00;56587.81;5040571;28;20025;-60
2022/04/26 11:45:02;;;;;;;6.05;4.15;;;;;;;-148.33;100.00;56587.81;5040213;28;20033;-60
2022/04/26 11:47:47;;;;;;;7.47;4.30;;;;;;;-148.33;100.00;56587.81;5039194;28;20048;-61
2022/04/26 11:50:15;;;;;;;7.28;4.80;;;;;;;-148.33;100.00;56587.81;5040312;28;20120;-61
2022/04/26 11:52:43;;;;;;;7.90;4.30;;;;;;;-148.33;100.00;56587.81;5040592;28;20022;-61
2022/04/26 11:55:19;;;;;;;5.75;4.60;;;;;;;-148.33;100.00;56587.81;5039954;28;20104;-61
2022/04/26 11:57:48;;;;;;;6.35;4.55;;;;;;;-148.33;100.00;56587.81;5042611;28;20064;-62
2022/04/26 12:00:15;;;;;;;7.03;5.05;;;;;;;-148.33;100.00;56587.81;5030964;28;20061;-61
2022/04/26 12:02:42;;;;;;;6.07;4.47;;;;;;;-148.33;100.00;56587.81;5030443;28;20021;-61
2022/04/26 12:05:08;;;;;;;7.32;4.40;;;;;;;-148.33;100.00;56587.81;5029698;28;20442;-61
2022/04/26 12:07:34;;;;;;;5.85;4.43;;;;;;;-148.33;100.00;56587.81;5030027;28;20109;-59
2022/04/26 12:10:00;;;;;;;4.93;3.83;;;;;;;-148.33;100.00;56587.81;5029542;28;20456;-61
2022/04/26 12:12:25;;;;;;;6.63;4.13;;;;;;;-148.33;100.00;56587.81;5030211;28;20029;-61
2022/04/26 12:14:50;;;;;;;5.93;3.92;;;;;;;-148.33;100.00;56587.81;5030341;28;20480;-61
2022/04/26 12:17:18;;;;;;;7.75;4.50;;;;;;;-148.33;100.00;56587.81;5029736;28;20036;-60
2022/04/26 12:19:51;;;;;;;4.93;4.10;;;;;;;-148.33;100.00;56587.81;5028590;28;20557;-61
2022/04/26 12:22:25;;;;;;;6.85;4.10;;;;;;;-148.33;100.00;56587.81;5028780;28;20514;-61
2022/04/26 12:24:51;;;;;;;5.63;4.13;;;;;;;-148.33;100.00;56587.81;5034032;28;20037;-60
2022/04/26 12:27:21;;;;;;;5.35;4.30;;;;;;;-148.33;100.00;56587.81;5029692;28;20393;-60
2022/04/26 12:29:53;;;;;;;5.00;3.90;;;;;;;-148.33;100.00;56587.81;5034584;28;20035;-61
2022/04/26 12:32:20;;;;;;;4.22;3.80;;;;;;;-148.33;100.00;56587.81;5048788;28;20028;-61
2022/04/26 12:34:49;;;;;;;4.88;4.15;;;;;;;-148.33;100.00;56587.81;5049026;28;20049;-60
2022/04/26 12:37:23;;;;;;;4.90;4.45;;;;;;;-148.33;100.00;56587.81;5048211;28;20104;-60
2022/04/26 12:39:51;;;;;;;4.43;3.72;;;;;;;-148.33;100.00;56587.81;5048588;28;20094;-61
2022/04/26 12:42:28;;;;;;;5.30;3.80;;;;;;;-148.33;100.00;56587.81;5040619;28;20025;-60
2022/04/26 12:44:55;;;;;;;4.30;3.65;;;;;;;-148.33;100.00;56587.81;5028417;28;20041;-62
2022/04/26 12:52:54;;;;;;;3.83;3.15;;;;;;;-148.33;100.00;56587.81;5029388;28;20389;-61
2022/04/26 12:55:30;;;;;;;5.90;3.58;;;;;;;-148.33;100.00;56587.81;5028854;28;20040;-61
2022/04/26 12:57:58;;;;;;;6.97;3.70;;;;;;;-148.33;100.00;56587.81;5028372;28;20068;-61
2022/04/26 13:00:25;;;;;;;3.70;3.40;;;;;;;-148.33;100.00;56587.81;5029101;28;20021;-61
2022/04/26 13:02:55;;;;;;;4.50;4.10;;;;;;;-148.33;100.00;56587.81;5028734;28;20021;-61
2022/04/26 13:05:21;;;;;;;7.07;3.50;;;;;;;-148.33;100.00;56587.81;5039225;28;20029;-62
2022/04/26 13:07:47;;;;;;;3.90;3.45;;;;;;;-148.33;100.00;56587.81;5047913;28;20083;-61
2022/04/26 13:10:17;;;;;;;6.38;3.67;;;;;;;-148.33;100.00;56587.81;5048363;28;20477;-61
2022/04/26 13:12:43;;;;;;;6.75;3.90;;;;;;;-148.33;100.00;56587.81;5048499;28;20028;-61
2022/04/26 13:15:09;;;;;;;5.28;4.13;;;;;;;-148.33;100.00;56587.81;5048181;28;20035;-61
2022/04/26 13:17:37;;;;;;;6.47;4.10;;;;;;;-148.33;100.00;56587.81;5047927;28;20017;-61
2022/04/26 13:20:04;;;;;;;4.80;4.40;;;;;;;-148.33;100.00;56587.81;5048153;28;20037;-60
2022/04/26 13:22:30;;;;;;;6.72;4.75;;;;;;;-148.33;100.00;56587.81;5048078;28;20036;-61
2022/04/26 13:24:55;;;;;;;6.68;3.83;;;;;;;-148.33;100.00;56587.81;5047583;28;20033;-61
2022/04/26 13:27:20;;;;;;;5.55;3.65;;;;;;;-148.33;100.00;56587.81;5048674;28;20099;-61
2022/04/26 13:29:48;;;;;;;6.45;3.53;;;;;;;-148.33;100.00;56587.81;5041415;28;20036;-60
2022/04/26 13:32:13;;;;;;;4.43;3.97;;;;;;;-148.33;100.00;56587.81;5033735;28;20112;-61
2022/04/26 13:34:39;;;;;;;6.13;4.40;;;;;;;-148.33;100.00;56587.81;5031242;28;20140;-61
2022/04/26 13:37:07;;;;;;;6.50;3.97;;;;;;;-148.33;100.00;56587.81;5030990;28;20076;-60
2022/04/26 13:39:32;;;;;;;5.10;4.57;;;;;;;-148.33;100.00;56587.81;5027693;28;20547;-61
2022/04/26 13:41:58;;;;;;;5.22;3.50;;;;;;;-148.33;100.00;56587.81;5044390;28;20032;-61
2022/04/26 13:44:23;;;;;;;6.13;3.58;;;;;;;-148.33;100.00;56587.81;5047786;28;20052;-61
2022/04/26 13:46:48;;;;;;;3.95;3.65;;;;;;;-148.33;100.00;56587.81;5046715;28;20070;-62
2022/04/26 13:49:14;;;;;;;5.82;3.33;;;;;;;-148.33;100.00;56587.81;5046503;28;20109;-62
2022/04/26 13:51:39;;;;;;;4.03;3.58;;;;;;;-148.33;100.00;56587.81;5046956;28;20063;-61
2022/04/26 13:54:04;;;;;;;5.72;3.92;;;;;;;-148.33;100.00;56587.81;5046605;28;20029;-62
2022/04/26 13:56:30;;;;;;;4.28;3.67;;;;;;;-148.33;100.00;56587.81;5046563;28;20074;-61
2022/04/26 13:58:55;;;;;;;3.88;3.47;;;;;;;-148.33;100.00;56587.81;5046495;28;20022;-62
2022/04/26 14:01:22;;;;;;;5.88;3.78;;;;;;;-148.33;100.00;56587.81;5046478;28;20040;-62
2022/04/26 14:03:49;;;;;;;6.05;3.97;;;;;;;-148.33;100.00;56587.81;5046085;28;20041;-61
2022/04/26 14:06:15;;;;;;;4.18;3.33;;;;;;;-148.33;100.00;56587.81;5046276;28;20365;-61
2022/04/26 14:08:43;;;;;;;4.55;3.80;;;;;;;-148.33;100.00;56587.81;5046518;28;20025;-61
2022/04/26 14:11:08;;;;;;;5.63;4.28;;;;;;;-148.33;100.00;56587.81;5046218;28;20032;-62
2022/04/26 14:21:47;;;;;;;6.47;3.70;;;;;;;-148.33;100.00;56587.81;5045932;28;20473;-62
2022/04/26 14:21:50;;;;;;;6.43;3.83;;;;;;;-148.33;100.00;56587.81;5051664;28;20036;-61
2022/04/26 14:24:15;;;;;;;5.07;3.80;;;;;;;-148.33;100.00;56587.81;5051868;28;20040;-62
2022/04/26 14:26:44;;;;;;;4.65;4.07;;;;;;;-148.33;100.00;56587.81;5051660;28;20037;-62
2022/04/26 14:29:09;;;;;;;4.60;3.78;;;;;;;-148.33;100.00;56587.81;5051285;28;20108;-62
2022/04/26 14:31:35;;;;;;;4.68;4.13;;;;;;;-148.33;100.00;56587.81;5050933;28;20104;-62
2022/04/26 14:34:01;;;;;;;6.07;3.65;;;;;;;-148.33;100.00;56587.81;5051401;28;20052;-62
2022/04/26 14:36:26;;;;;;;6.25;4.25;;;;;;;-148.33;100.00;56587.81;5051606;28;20050;-62
2022/04/26 14:38:52;;;;;;;5.85;3.95;;;;;;;-148.33;100.00;56587.81;5051384;28;20032;-61
2022/04/26 14:41:17;;;;;;;4.70;3.50;;;;;;;-148.33;100.00;56587.81;5050807;28;20421;-62
2022/04/26 14:43:42;;;;;;;6.72;3.50;;;;;;;-148.33;100.00;56587.81;5050825;28;20079;-61
2022/04/26 14:46:07;;;;;;;6.78;3.88;;;;;;;-148.33;100.00;56587.81;5051299;28;20025;-61
2022/04/26 14:48:33;;;;;;;4.80;3.78;;;;;;;-148.33;100.00;56587.81;5051282;28;20025;-61
2022/04/26 14:50:58;;;;;;;4.05;3.40;;;;;;;-148.33;100.00;56587.81;5051301;28;20044;-61
2022/04/26 14:53:24;;;;;;;4.65;3.35;;;;;;;-148.33;100.00;56587.81;5050792;28;20393;-60
2022/04/26 14:55:49;;;;;;;5.30;3.65;;;;;;;-148.33;100.00;56587.81;5051554;28;20106;-60
2022/04/26 14:58:16;;;;;;;5.22;4.00;;;;;;;-148.33;100.00;56587.81;5048910;28;20611;-60
2022/04/26 15:00:41;;;;;;;4.60;3.30;;;;;;;-148.33;100.00;56587.81;5045541;28;20025;-60
2022/04/26 15:03:07;;;;;;;5.93;3.00;;;;;;;-148.33;100.00;56587.81;5049820;28;20159;-61
2022/04/26 15:05:32;;;;;;;5.45;3.72;;;;;;;-148.33;100.00;56587.81;5049654;28;20039;-61
2022/04/26 15:10:41;;;;;;;4.78;3.50;;;;;;;-148.33;100.00;56587.81;5050195;28;20079;-62
2022/04/26 15:18:35;;;;;;;5.53;3.55;;;;;;;-148.33;100.00;56587.81;5050433;28;20036;-60
2022/04/26 15:21:02;;;;;;;4.13;3.40;;;;;;;-148.33;100.00;56587.81;5048873;28;20121;-61
2022/04/26 15:23:28;;;;;;;5.10;3.33;;;;;;;-148.33;100.00;56587.81;5049265;28;20028;-61
2022/04/26 15:25:55;;;;;;;3.72;3.42;;;;;;;-148.33;100.00;56587.81;5049393;28;20025;-60